Time;durP1;ratioP1;P1;durP2;ratioP2;P2;SDS_P1;SDS_P2;PMS_P1;PMS_P2;Temp;Humidity;BMP_temperature;BMP_pressure;BME280_temperature;BME280_humidity;BME280_pressure;Samples;Min_cycle;Max_cycle;Signal;HPM_P1;HPM_P2
2023/02/03 00:00:09;;;;;;;5.25;1.40;;;6.80;89.60;;;;;;5085685;28;20040;-62
2023/02/03 00:02:40;;;;;;;4.28;1.48;;;6.90;89.60;;;;;;5087753;28;20117;-59
2023/02/03 00:05:08;;;;;;;4.40;1.85;;;6.80;89.40;;;;;;5089140;28;20094;-58
2023/02/03 00:07:36;;;;;;;4.85;1.42;;;6.80;89.40;;;;;;5090121;28;20048;-62
2023/02/03 00:10:04;;;;;;;5.68;1.50;;;6.80;89.60;;;;;;5088824;28;20044;-62
2023/02/03 00:12:34;;;;;;;4.03;1.60;;;6.80;89.50;;;;;;5086871;28;20052;-65
2023/02/03 00:15:08;;;;;;;4.55;1.60;;;6.80;89.50;;;;;;5088636;28;20450;-65
2023/02/03 00:17:34;;;;;;;4.53;1.63;;;6.80;89.50;;;;;;5088729;28;20059;-62
2023/02/03 00:20:03;;;;;;;5.40;1.63;;;6.80;89.50;;;;;;5088581;28;20060;-62
2023/02/03 00:22:30;;;;;;;6.15;2.00;;;6.80;89.40;;;;;;5089728;28;20054;-63
2023/02/03 00:24:56;;;;;;;4.40;1.73;;;6.80;89.50;;;;;;5088813;28;20101;-61
2023/02/03 00:27:23;;;;;;;5.25;1.88;;;6.80;89.50;;;;;;5088650;28;20048;-62
2023/02/03 00:29:50;;;;;;;7.47;1.70;;;6.80;89.70;;;;;;5089741;28;20490;-64
2023/02/03 00:32:17;;;;;;;6.97;1.85;;;6.80;89.50;;;;;;5089392;28;20506;-64
2023/02/03 00:34:44;;;;;;;6.72;1.83;;;6.80;89.50;;;;;;5089054;28;20108;-64
2023/02/03 00:37:13;;;;;;;5.45;1.83;;;6.80;89.40;;;;;;5084153;28;20072;-60
2023/02/03 00:39:40;;;;;;;5.50;1.70;;;6.80;89.30;;;;;;5087979;28;20141;-60
2023/02/03 00:42:07;;;;;;;3.97;1.77;;;6.80;89.30;;;;;;5087792;28;20066;-59
2023/02/03 00:44:34;;;;;;;5.68;2.00;;;6.80;89.50;;;;;;5087781;28;20056;-60
2023/02/03 00:47:01;;;;;;;5.90;1.70;;;6.80;89.30;;;;;;5088332;28;20055;-62
2023/02/03 00:49:29;;;;;;;5.43;1.67;;;6.80;89.40;;;;;;5070225;28;20056;-60
2023/02/03 00:51:56;;;;;;;6.85;1.90;;;6.90;89.30;;;;;;5069785;28;20440;-59
2023/02/03 00:54:24;;;;;;;4.78;1.60;;;6.90;89.40;;;;;;5087877;28;20044;-58
2023/02/03 00:56:51;;;;;;;4.90;1.70;;;6.80;89.40;;;;;;5088712;28;20044;-59
2023/02/03 00:59:17;;;;;;;4.15;1.73;;;6.90;89.50;;;;;;5086007;28;20129;-60
2023/02/03 01:01:44;;;;;;;5.22;1.88;;;6.80;89.40;;;;;;5087980;28;20153;-59
2023/02/03 01:04:11;;;;;;;8.57;2.10;;;6.80;89.50;;;;;;5088435;28;20052;-59
2023/02/03 01:06:40;;;;;;;4.95;1.77;;;6.90;89.30;;;;;;5086969;28;20060;-59
2023/02/03 01:09:07;;;;;;;4.10;1.77;;;6.90;89.40;;;;;;5069394;28;20044;-60
2023/02/03 01:11:36;;;;;;;5.18;1.63;;;6.90;89.30;;;;;;5082959;28;20080;-59
2023/02/03 01:14:03;;;;;;;6.13;1.50;;;6.80;89.30;;;;;;5068171;28;20391;-59
2023/02/03 01:16:35;;;;;;;4.25;1.83;;;6.80;89.30;;;;;;5086886;28;20131;-60
2023/02/03 01:19:02;;;;;;;4.90;2.10;;;6.80;89.30;;;;;;5087884;28;20124;-60
2023/02/03 01:21:28;;;;;;;4.60;1.70;;;6.80;89.40;;;;;;5087322;28;20060;-66
2023/02/03 01:23:56;;;;;;;4.05;1.88;;;6.90;89.40;;;;;;5061287;28;20110;-67
2023/02/03 01:26:24;;;;;;;8.07;2.00;;;6.90;89.50;;;;;;5086578;28;20047;-58
2023/02/03 01:28:53;;;;;;;4.68;1.65;;;6.80;89.70;;;;;;5086467;28;20060;-59
2023/02/03 01:31:23;;;;;;;8.07;1.85;;;6.80;89.50;;;;;;5061091;28;20044;-58
2023/02/03 01:33:53;;;;;;;3.78;1.65;;;6.80;89.50;;;;;;5086811;28;20055;-58
2023/02/03 01:36:22;;;;;;;3.80;1.67;;;6.80;89.70;;;;;;5087184;28;20521;-62
2023/02/03 01:38:49;;;;;;;5.50;1.77;;;6.90;89.50;;;;;;5069478;28;20063;-61
2023/02/03 01:41:17;;;;;;;3.28;1.42;;;6.80;89.70;;;;;;5088891;28;20395;-64
2023/02/03 01:43:47;;;;;;;4.10;1.50;;;6.80;89.80;;;;;;5082578;28;20044;-65
2023/02/03 01:46:25;;;;;;;4.15;1.70;;;6.80;89.70;;;;;;5086516;28;20478;-58
2023/02/03 01:48:53;;;;;;;4.20;1.70;;;6.80;89.70;;;;;;5063479;28;20052;-58
2023/02/03 01:51:22;;;;;;;5.93;1.95;;;6.80;89.60;;;;;;5085629;28;20040;-68
2023/02/03 01:53:51;;;;;;;7.20;1.50;;;6.80;89.50;;;;;;5088268;28;20079;-69
2023/02/03 01:56:18;;;;;;;5.15;1.60;;;6.90;89.50;;;;;;5087759;28;20040;-61
2023/02/03 01:58:48;;;;;;;6.55;1.77;;;6.90;89.70;;;;;;5087417;28;20070;-61
2023/02/03 02:01:15;;;;;;;4.40;1.65;;;6.80;89.90;;;;;;5061561;28;20040;-61
2023/02/03 02:03:46;;;;;;;4.57;1.60;;;6.90;89.80;;;;;;5087275;28;20044;-61
2023/02/03 02:06:14;;;;;;;3.15;1.27;;;6.80;89.60;;;;;;5067924;28;20066;-60
2023/02/03 02:08:44;;;;;;;4.68;1.40;;;6.80;89.70;;;;;;5069248;28;20049;-60
2023/02/03 02:11:11;;;;;;;4.68;1.55;;;6.80;89.50;;;;;;5086145;28;20048;-59
2023/02/03 02:13:43;;;;;;;4.83;1.40;;;6.80;89.60;;;;;;5087287;28;20060;-58
2023/02/03 02:16:15;;;;;;;5.38;1.60;;;6.90;89.60;;;;;;5087770;28;20048;-64
2023/02/03 02:19:03;;;;;;;2.35;1.38;;;6.90;89.60;;;;;;5087493;28;20044;-66
2023/02/03 02:21:59;;;;;;;4.80;1.60;;;6.90;89.60;;;;;;5087698;28;20052;-67
2023/02/03 02:24:59;;;;;;;4.10;1.75;;;6.90;89.80;;;;;;5086034;28;20391;-68
2023/02/03 02:28:02;;;;;;;4.53;1.50;;;6.90;89.60;;;;;;5082715;28;20044;-57
2023/02/03 02:30:49;;;;;;;5.50;1.73;;;6.90;89.50;;;;;;5068370;28;20052;-68
2023/02/03 02:33:28;;;;;;;5.28;2.05;;;6.90;89.80;;;;;;5067220;28;20441;-67
2023/02/03 02:36:05;;;;;;;5.18;1.40;;;6.90;89.50;;;;;;5067755;28;20074;-59
2023/02/03 02:38:45;;;;;;;4.53;1.55;;;6.90;89.50;;;;;;5086573;28;20074;-60
2023/02/03 02:41:19;;;;;;;3.90;1.50;;;6.90;89.80;;;;;;5065505;28;20114;-58
2023/02/03 02:43:55;;;;;;;5.70;1.60;;;6.90;89.80;;;;;;5070190;28;20454;-59
2023/02/03 02:46:31;;;;;;;3.50;1.45;;;6.90;89.70;;;;;;5072645;28;20127;-59
2023/02/03 02:49:06;;;;;;;5.25;1.50;;;6.90;89.80;;;;;;5090169;28;20056;-59
2023/02/03 02:51:34;;;;;;;2.47;1.10;;;6.90;89.80;;;;;;5087639;28;20419;-60
2023/02/03 02:54:05;;;;;;;3.65;1.40;;;6.90;89.80;;;;;;5072297;28;20105;-59
2023/02/03 02:56:36;;;;;;;3.55;1.20;;;6.90;89.80;;;;;;5072167;28;20456;-61
2023/02/03 02:59:04;;;;;;;4.15;1.35;;;6.90;89.70;;;;;;5090244;28;20043;-62
2023/02/03 03:01:31;;;;;;;5.10;1.20;;;6.90;89.90;;;;;;5088740;28;20048;-61
2023/02/03 03:04:00;;;;;;;5.45;1.38;;;7.00;90.00;;;;;;5091350;28;20102;-62
2023/02/03 03:06:32;;;;;;;3.67;1.45;;;6.90;89.80;;;;;;5071590;28;20059;-59
2023/02/03 03:09:04;;;;;;;5.43;1.42;;;6.90;89.90;;;;;;5071725;28;20051;-60
2023/02/03 03:11:36;;;;;;;3.60;1.20;;;6.90;90.00;;;;;;5072022;28;20036;-59
2023/02/03 03:14:06;;;;;;;3.15;1.02;;;6.90;89.80;;;;;;5066515;28;20048;-59
2023/02/03 03:16:37;;;;;;;5.70;1.10;;;6.90;90.00;;;;;;5071931;28;20048;-67
2023/02/03 03:19:06;;;;;;;;;;;6.90;89.90;;;;;;5064455;28;20466;-67
2023/02/03 03:21:40;;;;;;;2.72;1.08;;;6.90;90.30;;;;;;5090945;28;20375;-62
2023/02/03 03:24:11;;;;;;;5.10;1.30;;;6.90;90.00;;;;;;5089201;28;20118;-62
2023/02/03 03:26:43;;;;;;;3.83;1.17;;;6.90;90.20;;;;;;5089124;28;20055;-62
2023/02/03 03:29:14;;;;;;;2.08;1.10;;;6.90;90.10;;;;;;5089169;28;20063;-62
2023/02/03 03:31:41;;;;;;;7.60;1.40;;;6.90;90.20;;;;;;5090736;28;20050;-63
2023/02/03 03:34:10;;;;;;;2.47;1.23;;;6.90;90.10;;;;;;5089863;28;20139;-64
2023/02/03 03:36:42;;;;;;;2.63;1.00;;;7.00;90.10;;;;;;5087971;28;20055;-58
2023/02/03 03:39:15;;;;;;;2.95;1.05;;;6.90;89.90;;;;;;5089719;28;20152;-59
2023/02/03 03:41:56;;;;;;;2.05;0.90;;;6.90;90.00;;;;;;5088931;28;20109;-58
2023/02/03 03:44:27;;;;;;;3.47;1.10;;;6.90;90.00;;;;;;5089448;28;20048;-58
2023/02/03 03:47:04;;;;;;;2.88;1.00;;;7.00;89.90;;;;;;5088878;28;20050;-68
2023/02/03 03:49:33;;;;;;;2.45;1.17;;;7.00;89.90;;;;;;5089782;28;20044;-68
2023/02/03 03:52:06;;;;;;;2.80;1.10;;;7.00;89.90;;;;;;5090578;28;20055;-62
2023/02/03 03:54:36;;;;;;;2.60;1.00;;;7.00;89.80;;;;;;5086978;28;20048;-62
2023/02/03 03:57:08;;;;;;;3.13;1.00;;;7.00;89.80;;;;;;5090782;28;20075;-69
2023/02/03 03:59:38;;;;;;;1.98;0.80;;;7.00;89.70;;;;;;5089766;28;20453;-67
2023/02/03 04:02:06;;;;;;;2.42;1.00;;;7.00;89.80;;;;;;5089308;28;20075;-64
2023/02/03 04:04:36;;;;;;;1.88;0.65;;;7.00;89.80;;;;;;5089740;28;20036;-62
2023/02/03 04:07:04;;;;;;;1.55;0.82;;;7.00;89.80;;;;;;5090590;28;20059;-68
2023/02/03 04:09:31;;;;;;;2.42;0.80;;;7.00;89.70;;;;;;5087153;28;20056;-67
2023/02/03 04:12:01;;;;;;;3.60;0.70;;;7.00;89.60;;;;;;5089232;28;20440;-63
2023/02/03 04:14:28;;;;;;;2.85;0.88;;;7.00;89.70;;;;;;5089832;28;20125;-63
2023/02/03 04:16:55;;;;;;;2.40;0.75;;;7.00;89.70;;;;;;5089364;28;20138;-62
2023/02/03 04:19:22;;;;;;;2.30;1.00;;;7.00;89.70;;;;;;5088410;28;20052;-62
2023/02/03 04:21:49;;;;;;;2.45;0.85;;;7.00;89.70;;;;;;5089380;28;20056;-63
2023/02/03 04:24:18;;;;;;;2.13;1.02;;;7.00;89.60;;;;;;5088203;28;20060;-63
2023/02/03 04:26:45;;;;;;;3.33;0.70;;;7.10;89.60;;;;;;5089620;28;20051;-69
2023/02/03 04:29:12;;;;;;;2.20;0.90;;;7.00;89.70;;;;;;5089232;28;20059;-68
2023/02/03 04:31:38;;;;;;;2.33;0.90;;;7.00;89.80;;;;;;5089172;28;20045;-59
2023/02/03 04:34:06;;;;;;;1.65;0.80;;;7.10;89.70;;;;;;5088355;28;20048;-62
2023/02/03 04:36:32;;;;;;;2.67;0.88;;;7.00;89.70;;;;;;5089123;28;20047;-63
2023/02/03 04:38:59;;;;;;;1.85;0.85;;;7.00;89.70;;;;;;5088600;28;20131;-64
2023/02/03 04:41:27;;;;;;;1.92;0.90;;;7.00;89.60;;;;;;5087014;28;20048;-63
2023/02/03 04:43:54;;;;;;;2.22;0.82;;;7.10;89.70;;;;;;5089534;28;20044;-63
2023/02/03 04:46:21;;;;;;;3.17;1.00;;;7.10;89.70;;;;;;5088284;28;20056;-63
2023/02/03 04:48:48;;;;;;;2.80;1.00;;;7.10;89.70;;;;;;5089783;28;20048;-62
2023/02/03 04:51:15;;;;;;;2.85;1.00;;;7.10;89.80;;;;;;5087058;28;20059;-58
2023/02/03 04:53:46;;;;;;;1.38;0.70;;;7.10;89.80;;;;;;5087334;28;20063;-59
2023/02/03 04:56:14;;;;;;;1.95;0.82;;;7.10;89.80;;;;;;5086697;28;20045;-64
2023/02/03 04:58:42;;;;;;;3.00;0.93;;;7.10;89.90;;;;;;5088684;28;20047;-63
2023/02/03 05:01:09;;;;;;;1.55;0.70;;;7.10;89.80;;;;;;5088020;28;20067;-62
2023/02/03 05:03:37;;;;;;;2.10;0.90;;;7.10;89.90;;;;;;5087429;28;20398;-61
2023/02/03 05:06:04;;;;;;;2.13;0.63;;;7.10;90.00;;;;;;5088973;28;20097;-64
2023/02/03 05:08:31;;;;;;;2.83;0.75;;;7.10;90.00;;;;;;5087157;28;20089;-61
2023/02/03 05:10:58;;;;;;;3.45;0.90;;;7.10;89.90;;;;;;5083802;28;20056;-61
2023/02/03 05:13:27;;;;;;;2.08;0.75;;;7.10;89.90;;;;;;5086525;28;20072;-62
2023/02/03 05:15:55;;;;;;;3.15;0.98;;;7.10;89.90;;;;;;5088047;28;20052;-64
2023/02/03 05:18:22;;;;;;;2.33;0.70;;;7.10;89.90;;;;;;5086569;28;20054;-64
2023/02/03 05:20:49;;;;;;;2.05;0.90;;;7.10;90.00;;;;;;5086274;28;20154;-58
2023/02/03 05:23:16;;;;;;;1.65;0.80;;;7.10;89.90;;;;;;5087028;28;20076;-58
2023/02/03 05:25:44;;;;;;;2.63;0.90;;;7.00;89.90;;;;;;5087620;28;20054;-58
2023/02/03 05:28:11;;;;;;;2.90;0.80;;;7.10;89.90;;;;;;5087409;28;20052;-59
2023/02/03 05:30:38;;;;;;;3.70;1.02;;;7.10;89.80;;;;;;5087826;28;20494;-58
2023/02/03 05:33:06;;;;;;;1.50;0.90;;;7.10;89.90;;;;;;5087797;28;20078;-62
2023/02/03 05:35:33;;;;;;;2.08;0.90;;;7.10;89.90;;;;;;5083820;28;20044;-62
2023/02/03 05:38:00;;;;;;;2.90;1.15;;;7.10;89.80;;;;;;5086636;28;20040;-62
2023/02/03 05:43:12;;;;;;;3.50;1.48;;;7.00;89.80;;;;;;5081974;28;20126;-62
2023/02/03 05:45:39;;;;;;;3.42;1.10;;;7.10;89.90;;;;;;5084406;28;20036;-60
2023/02/03 05:48:07;;;;;;;3.28;1.08;;;7.10;89.80;;;;;;5087170;28;20044;-60
2023/02/03 05:50:35;;;;;;;2.30;1.13;;;7.10;89.80;;;;;;5087170;28;20559;-61
2023/02/03 05:53:08;;;;;;;2.58;0.90;;;7.10;89.90;;;;;;5084004;28;20132;-61
2023/02/03 05:55:36;;;;;;;3.20;0.90;;;7.10;90.00;;;;;;5086903;28;20052;-59
2023/02/03 05:58:04;;;;;;;3.17;1.10;;;7.10;89.90;;;;;;5087739;28;20076;-59
2023/02/03 06:00:31;;;;;;;2.22;0.93;;;7.10;90.00;;;;;;5086003;28;20048;-59
2023/02/03 06:03:02;;;;;;;2.17;1.08;;;7.10;90.00;;;;;;5088050;28;20068;-58
2023/02/03 06:05:31;;;;;;;4.30;1.30;;;7.10;90.00;;;;;;5087951;28;20052;-66
2023/02/03 06:07:58;;;;;;;1.77;0.82;;;7.10;90.00;;;;;;5086243;28;20044;-68
2023/02/03 06:10:26;;;;;;;3.72;0.80;;;7.10;90.00;;;;;;5086489;28;20390;-59
2023/02/03 06:12:53;;;;;;;2.33;0.90;;;7.10;89.90;;;;;;5087751;28;20048;-58
2023/02/03 06:15:20;;;;;;;2.83;0.90;;;7.10;90.00;;;;;;5087172;28;20048;-58
2023/02/03 06:17:48;;;;;;;4.40;1.00;;;7.10;90.00;;;;;;5086758;28;20818;-58
2023/02/03 06:20:17;;;;;;;3.10;1.10;;;7.10;89.90;;;;;;5090712;28;20044;-59
2023/02/03 06:22:45;;;;;;;2.53;1.05;;;7.10;90.00;;;;;;5091243;28;20051;-58
2023/02/03 06:25:13;;;;;;;2.08;1.02;;;7.10;89.90;;;;;;5091013;28;20399;-57
2023/02/03 06:27:41;;;;;;;3.53;1.20;;;7.10;89.90;;;;;;5088483;28;20047;-59
2023/02/03 06:30:10;;;;;;;2.72;1.02;;;7.10;90.00;;;;;;5091318;28;20109;-58
2023/02/03 06:32:36;;;;;;;2.95;0.90;;;7.10;89.90;;;;;;5091990;28;20052;-64
2023/02/03 06:35:03;;;;;;;4.28;1.42;;;7.10;89.90;;;;;;5091307;28;20052;-64
2023/02/03 06:37:31;;;;;;;1.58;0.70;;;7.10;89.90;;;;;;5088283;28;20044;-57
2023/02/03 06:39:59;;;;;;;3.78;0.98;;;7.10;89.80;;;;;;5088369;28;20044;-58
2023/02/03 06:42:26;;;;;;;2.08;0.80;;;7.10;89.80;;;;;;5090831;28;20044;-63
2023/02/03 06:44:54;;;;;;;3.13;1.10;;;7.10;89.70;;;;;;5091867;28;20067;-63
2023/02/03 06:47:20;;;;;;;1.77;0.80;;;7.10;89.70;;;;;;5090618;28;20063;-63
2023/02/03 06:49:47;;;;;;;3.13;0.90;;;7.10;89.70;;;;;;5090988;28;20048;-63
2023/02/03 06:52:15;;;;;;;1.92;0.80;;;7.10;89.60;;;;;;5090461;28;20079;-62
2023/02/03 06:54:42;;;;;;;1.65;0.73;;;7.20;89.60;;;;;;5089956;28;20117;-62
2023/02/03 06:57:10;;;;;;;1.58;0.68;;;7.10;89.50;;;;;;5089521;28;20580;-65
2023/02/03 06:59:37;;;;;;;1.35;0.70;;;7.10;89.50;;;;;;5088704;28;20055;-65
2023/02/03 07:02:04;;;;;;;1.73;0.65;;;7.10;89.50;;;;;;5091094;28;20438;-69
2023/02/03 07:04:31;;;;;;;1.85;0.77;;;7.20;89.50;;;;;;5090702;28;20048;-68
2023/02/03 07:06:58;;;;;;;1.60;0.80;;;7.20;89.40;;;;;;5090361;28;20059;-64
2023/02/03 07:09:24;;;;;;;2.05;0.77;;;7.10;89.40;;;;;;5088909;28;20055;-64
2023/02/03 07:11:52;;;;;;;2.00;0.82;;;7.20;89.40;;;;;;5090546;28;20147;-62
2023/02/03 07:14:20;;;;;;;0.95;0.63;;;7.10;89.40;;;;;;5088164;28;20130;-62
2023/02/03 07:16:47;;;;;;;2.25;0.70;;;7.10;89.40;;;;;;5088317;28;20080;-62
2023/02/03 07:19:14;;;;;;;1.85;0.90;;;7.20;89.30;;;;;;5089667;28;20047;-62
2023/02/03 07:21:41;;;;;;;3.25;0.90;;;7.10;89.20;;;;;;5088294;28;20048;-62
2023/02/03 07:24:08;;;;;;;1.77;0.77;;;7.20;89.20;;;;;;5086085;28;20047;-62
2023/02/03 07:26:35;;;;;;;1.80;0.90;;;7.20;89.10;;;;;;5089984;28;20491;-60
2023/02/03 07:29:02;;;;;;;2.45;0.80;;;7.20;89.10;;;;;;5090080;28;20506;-59
2023/02/03 07:31:30;;;;;;;3.05;0.95;;;7.20;89.00;;;;;;5087816;28;20036;-60
2023/02/03 07:33:57;;;;;;;1.75;0.80;;;7.20;88.90;;;;;;5089069;28;20044;-59
2023/02/03 07:36:24;;;;;;;3.33;0.60;;;7.20;88.90;;;;;;5086566;28;20056;-62
2023/02/03 07:38:51;;;;;;;2.90;1.00;;;7.20;88.90;;;;;;5087328;28;20048;-62
2023/02/03 07:41:18;;;;;;;1.90;1.02;;;7.20;88.80;;;;;;5088999;28;20116;-67
2023/02/03 07:43:44;;;;;;;2.20;0.90;;;7.20;88.80;;;;;;5089046;28;20087;-69
2023/02/03 07:46:11;;;;;;;0.90;0.60;;;7.20;88.70;;;;;;5087909;28;20048;-62
2023/02/03 07:48:40;;;;;;;1.92;0.82;;;7.20;88.70;;;;;;5090210;28;20055;-61
2023/02/03 07:51:07;;;;;;;2.13;1.00;;;7.20;88.70;;;;;;5088614;28;20052;-64
2023/02/03 07:53:35;;;;;;;4.65;1.27;;;7.20;88.70;;;;;;5089473;28;20052;-64
2023/02/03 07:56:03;;;;;;;3.60;0.90;;;7.20;88.70;;;;;;5090245;28;20059;-60
2023/02/03 07:58:30;;;;;;;2.42;0.85;;;7.20;88.60;;;;;;5087135;28;20513;-60
2023/02/03 08:00:58;;;;;;;3.50;1.13;;;7.20;88.60;;;;;;5089351;28;20059;-66
2023/02/03 08:03:25;;;;;;;1.92;0.65;;;7.30;88.60;;;;;;5088982;28;20048;-68
2023/02/03 08:05:53;;;;;;;3.33;0.90;;;7.20;88.50;;;;;;5085010;28;20052;-60
2023/02/03 08:08:20;;;;;;;2.53;0.77;;;7.30;88.50;;;;;;5086089;28;20044;-61
2023/02/03 08:10:47;;;;;;;3.40;0.90;;;7.30;88.50;;;;;;5089680;28;20052;-65
2023/02/03 08:13:14;;;;;;;3.72;1.10;;;7.30;88.40;;;;;;5087523;28;20051;-64
2023/02/03 08:15:41;;;;;;;2.53;0.90;;;7.30;88.40;;;;;;5089373;28;20106;-60
2023/02/03 08:18:08;;;;;;;2.85;0.90;;;7.30;88.50;;;;;;5088909;28;20048;-60
2023/02/03 08:20:35;;;;;;;1.92;0.80;;;7.30;88.40;;;;;;5088999;28;20525;-61
2023/02/03 08:23:03;;;;;;;2.00;0.80;;;7.30;88.50;;;;;;5087884;28;20055;-61
2023/02/03 08:25:31;;;;;;;2.55;0.80;;;7.30;88.40;;;;;;5088580;28;20051;-58
2023/02/03 08:27:58;;;;;;;4.22;1.33;;;7.30;88.50;;;;;;5089974;28;20085;-59
2023/02/03 08:30:26;;;;;;;3.03;1.15;;;7.30;88.50;;;;;;5088519;28;20076;-68
2023/02/03 08:32:52;;;;;;;2.50;0.80;;;7.30;88.50;;;;;;5088873;28;20564;-68
2023/02/03 08:35:19;;;;;;;1.77;0.95;;;7.30;88.50;;;;;;5088093;28;20414;-68
2023/02/03 08:37:46;;;;;;;3.30;0.98;;;7.30;88.40;;;;;;5086523;28;20470;-68
2023/02/03 08:40:15;;;;;;;3.58;1.00;;;7.30;88.40;;;;;;5087021;28;20049;-68
2023/02/03 08:42:42;;;;;;;2.70;1.00;;;7.30;88.30;;;;;;5088134;28;20074;-67
2023/02/03 08:45:10;;;;;;;3.72;0.95;;;7.40;88.30;;;;;;5087343;28;20113;-68
2023/02/03 08:47:38;;;;;;;1.75;0.80;;;7.40;88.30;;;;;;5083995;28;20047;-64
2023/02/03 08:50:06;;;;;;;1.58;0.80;;;7.40;88.20;;;;;;5084390;28;20071;-64
2023/02/03 08:52:33;;;;;;;2.50;1.00;;;7.40;88.20;;;;;;5086444;28;20029;-59
2023/02/03 08:55:00;;;;;;;4.00;0.77;;;7.40;88.10;;;;;;5081888;28;20044;-58
2023/02/03 08:57:32;;;;;;;2.75;1.08;;;7.40;88.00;;;;;;5087308;28;20048;-59
2023/02/03 08:59:59;;;;;;;3.78;0.93;;;7.40;88.00;;;;;;5084875;28;20060;-59
2023/02/03 09:02:26;;;;;;;2.78;1.00;;;7.40;87.90;;;;;;5083705;28;20071;-62
2023/02/03 09:04:53;;;;;;;4.55;1.20;;;7.40;87.80;;;;;;5085467;28;20059;-62
2023/02/03 09:07:19;;;;;;;3.85;1.00;;;7.50;87.70;;;;;;5086872;28;20048;-64
2023/02/03 09:09:47;;;;;;;2.65;1.30;;;7.50;87.60;;;;;;5086350;28;20043;-63
2023/02/03 09:12:14;;;;;;;4.65;1.50;;;7.50;87.50;;;;;;5082303;28;20056;-64
2023/02/03 09:14:42;;;;;;;4.93;1.80;;;7.50;87.40;;;;;;5079182;28;20139;-64
2023/02/03 09:17:09;;;;;;;5.03;2.10;;;7.50;87.40;;;;;;5078686;28;20047;-59
2023/02/03 09:19:36;;;;;;;9.00;3.30;;;7.50;87.40;;;;;;5085096;28;20048;-58
2023/02/03 09:22:04;;;;;;;7.45;3.30;;;7.50;87.30;;;;;;5078094;28;20047;-59
2023/02/03 09:24:31;;;;;;;6.47;2.60;;;7.50;87.30;;;;;;5086999;28;20517;-58
2023/02/03 09:26:59;;;;;;;4.35;2.15;;;7.50;87.00;;;;;;5087967;28;20048;-64
2023/02/03 09:29:26;;;;;;;5.78;1.80;;;7.50;87.00;;;;;;5076464;28;20508;-64
2023/02/03 09:31:55;;;;;;;4.97;1.92;;;7.60;86.90;;;;;;5085431;28;20048;-62
2023/02/03 09:34:22;;;;;;;5.18;1.70;;;7.60;86.90;;;;;;5085228;28;20139;-62
2023/02/03 09:36:50;;;;;;;4.00;1.50;;;7.60;86.80;;;;;;5085547;28;20055;-63
2023/02/03 09:39:17;;;;;;;5.20;1.20;;;7.60;86.70;;;;;;5085798;28;20521;-62
2023/02/03 09:42:01;;;;;;;2.38;1.00;;;7.60;86.70;;;;;;5086877;28;20623;-59
2023/02/03 09:44:34;;;;;;;2.75;1.20;;;7.60;86.60;;;;;;5086581;28;20422;-59
2023/02/03 09:47:09;;;;;;;3.28;1.40;;;7.60;86.50;;;;;;5087128;28;20051;-61
2023/02/03 09:49:40;;;;;;;2.78;0.77;;;7.60;86.60;;;;;;5087248;28;20060;-61
2023/02/03 09:52:13;;;;;;;3.70;1.55;;;7.70;86.50;;;;;;5087140;28;20052;-68
2023/02/03 09:54:47;;;;;;;5.65;1.10;;;7.70;86.50;;;;;;5090282;28;20111;-69
2023/02/03 09:57:20;;;;;;;2.42;0.93;;;7.70;86.50;;;;;;5091774;28;20044;-67
2023/02/03 09:59:47;;;;;;;4.00;1.00;;;7.70;86.30;;;;;;5089527;28;20052;-68
2023/02/03 10:02:31;;;;;;;2.40;1.02;;;7.70;86.10;;;;;;5090970;28;20052;-62
2023/02/03 10:05:04;;;;;;;1.95;0.88;;;7.80;86.00;;;;;;5090349;28;20048;-62
2023/02/03 10:07:40;;;;;;;4.32;1.30;;;7.80;85.90;;;;;;5090334;28;20044;-59
2023/02/03 10:10:13;;;;;;;2.97;1.23;;;7.80;85.90;;;;;;5091246;28;20048;-60
2023/02/03 10:13:04;;;;;;;3.25;1.05;;;7.80;85.90;;;;;;5090304;28;20048;-64
2023/02/03 10:15:51;;;;;;;3.55;1.00;;;7.80;85.90;;;;;;5090485;28;20047;-60
2023/02/03 10:18:27;;;;;;;3.35;1.00;;;7.80;85.70;;;;;;5088321;28;20060;-61
2023/02/03 10:20:57;;;;;;;2.63;0.75;;;7.80;85.60;;;;;;5090717;28;20059;-58
2023/02/03 10:23:30;;;;;;;3.45;1.27;;;7.80;85.40;;;;;;5088883;28;20109;-58
2023/02/03 10:25:59;;;;;;;6.70;3.30;;;7.90;85.40;;;;;;5090665;28;20513;-59
2023/02/03 10:28:30;;;;;;;5.95;2.70;;;7.90;85.20;;;;;;5090383;28;21153;-60
2023/02/03 10:30:59;;;;;;;5.65;2.15;;;7.90;85.30;;;;;;5090816;28;20059;-60
2023/02/03 10:33:28;;;;;;;5.50;1.92;;;7.90;85.10;;;;;;5089957;28;20047;-60
2023/02/03 10:36:04;;;;;;;4.10;1.40;;;7.90;85.10;;;;;;5088586;28;20071;-68
2023/02/03 10:38:45;;;;;;;4.43;1.40;;;7.90;85.20;;;;;;5087959;28;20422;-69
2023/02/03 10:41:12;;;;;;;4.28;1.38;;;7.90;85.00;;;;;;5090751;28;20059;-63
2023/02/03 10:43:50;;;;;;;3.63;1.00;;;8.00;85.00;;;;;;5090977;28;20051;-65
2023/02/03 10:46:19;;;;;;;4.10;0.90;;;7.90;85.00;;;;;;5089849;28;20052;-62
2023/02/03 10:48:48;;;;;;;3.47;1.60;;;8.00;84.90;;;;;;5089202;28;20414;-61
2023/02/03 10:51:22;;;;;;;2.28;1.10;;;8.00;84.90;;;;;;5087455;28;20062;-63
2023/02/03 10:53:52;;;;;;;5.85;1.77;;;8.10;84.80;;;;;;5058185;28;20044;-64
2023/02/03 10:56:22;;;;;;;3.20;1.00;;;8.10;84.70;;;;;;5090065;28;20048;-64
2023/02/03 10:58:50;;;;;;;;;;;8.10;84.90;;;;;;5091192;28;20086;-65
2023/02/03 11:01:19;;;;;;;3.15;0.80;;;8.10;84.80;;;;;;5088586;28;19928;-60
2023/02/03 11:04:02;;;;;;;4.18;1.38;;;8.10;85.00;;;;;;5088924;28;20495;-60
2023/02/03 11:06:29;;;;;;;6.70;1.50;;;8.10;85.10;;;;;;5089442;28;20415;-62
2023/02/03 11:08:57;;;;;;;6.38;2.35;;;8.10;85.30;;;;;;5088899;28;20414;-63
2023/02/03 11:11:27;;;;;;;4.28;2.05;;;8.10;85.20;;;;;;5088528;28;21119;-60
2023/02/03 11:14:11;;;;;;;3.60;1.08;;;8.10;85.30;;;;;;5090279;28;20048;-60
2023/02/03 11:16:39;;;;;;;3.78;0.90;;;8.10;85.30;;;;;;5090000;28;20091;-63
2023/02/03 11:19:16;;;;;;;2.90;1.00;;;8.10;85.10;;;;;;5089229;28;20060;-62
2023/02/03 11:21:46;;;;;;;2.30;1.17;;;8.10;85.10;;;;;;5086667;28;20514;-69
2023/02/03 11:24:19;;;;;;;5.00;1.50;;;8.10;85.00;;;;;;5086981;28;20040;-69
2023/02/03 11:26:52;;;;;;;2.95;1.42;;;8.10;84.80;;;;;;5088899;28;20063;-64
2023/02/03 11:29:23;;;;;;;3.55;1.35;;;8.10;84.80;;;;;;5088327;28;20449;-67
2023/02/03 11:31:53;;;;;;;6.85;1.55;;;8.20;84.70;;;;;;5090382;28;20051;-63
2023/02/03 11:34:25;;;;;;;3.57;1.40;;;8.10;84.70;;;;;;5088710;28;20134;-63
2023/02/03 11:36:53;;;;;;;7.30;1.38;;;8.20;84.70;;;;;;5090102;28;20080;-60
2023/02/03 11:39:25;;;;;;;3.92;0.65;;;8.20;84.60;;;;;;5086620;28;20048;-58
2023/02/03 11:41:53;;;;;;;2.08;0.70;;;8.20;84.70;;;;;;5089639;28;20036;-58
2023/02/03 11:44:22;;;;;;;1.60;0.70;;;8.20;84.90;;;;;;5088656;28;20035;-59
2023/02/03 11:46:53;;;;;;;2.90;0.80;;;8.20;85.20;;;;;;5088902;28;20052;-59
2023/02/03 11:50:03;;;;;;;2.20;0.70;;;8.20;85.30;;;;;;5088767;28;20059;-59
2023/02/03 11:53:01;;;;;;;3.10;0.70;;;8.10;85.40;;;;;;5087520;28;20052;-61
2023/02/03 11:55:40;;;;;;;3.63;0.93;;;8.20;85.50;;;;;;5072160;28;20047;-62
2023/02/03 11:58:27;;;;;;;3.38;0.90;;;8.20;85.60;;;;;;5089822;28;20052;-62
2023/02/03 12:01:03;;;;;;;2.80;0.80;;;8.20;85.80;;;;;;5090104;28;20457;-62
2023/02/03 12:03:47;;;;;;;3.13;1.00;;;8.20;85.80;;;;;;5090079;28;20130;-62
2023/02/03 12:06:36;;;;;;;4.13;1.00;;;8.20;85.90;;;;;;5088832;28;20051;-63
2023/02/03 12:09:16;;;;;;;1.63;1.08;;;8.20;86.00;;;;;;5089312;28;20510;-64
2023/02/03 12:12:04;;;;;;;3.63;0.93;;;8.20;86.00;;;;;;5088884;28;20101;-69
2023/02/03 12:14:44;;;;;;;3.10;1.00;;;8.20;86.20;;;;;;5080900;28;20044;-69
2023/02/03 12:17:26;;;;;;;4.15;1.10;;;8.20;86.30;;;;;;5084023;28;20059;-63
2023/02/03 12:20:05;;;;;;;2.15;0.90;;;8.10;86.40;;;;;;5084982;28;20055;-63
2023/02/03 12:22:43;;;;;;;2.47;0.82;;;8.10;86.60;;;;;;5084366;28;20048;-59
2023/02/03 12:25:29;;;;;;;5.50;1.05;;;8.20;86.80;;;;;;5083902;28;20040;-59
2023/02/03 12:28:06;;;;;;;3.78;1.20;;;8.10;87.00;;;;;;5085213;28;20246;-60
2023/02/03 12:30:36;;;;;;;3.25;0.85;;;8.10;87.00;;;;;;5083855;28;20070;-68
2023/02/03 12:33:11;;;;;;;2.85;1.05;;;8.10;87.10;;;;;;5085413;28;20059;-68
2023/02/03 12:35:43;;;;;;;2.25;0.85;;;8.20;87.10;;;;;;5082466;28;20048;-59
2023/02/03 12:38:17;;;;;;;2.22;0.80;;;8.10;87.00;;;;;;5081480;28;20036;-59
2023/02/03 12:40:47;;;;;;;3.33;1.02;;;8.10;87.10;;;;;;5086699;28;20051;-63
2023/02/03 12:43:24;;;;;;;3.13;0.77;;;8.10;87.20;;;;;;5087785;28;20047;-61
2023/02/03 12:45:55;;;;;;;2.30;0.80;;;8.10;87.30;;;;;;5088503;28;20507;-61
2023/02/03 12:48:25;;;;;;;2.25;0.73;;;8.20;87.50;;;;;;5086462;28;20040;-62
2023/02/03 12:50:56;;;;;;;1.85;0.70;;;8.10;87.60;;;;;;5088265;28;20552;-63
2023/02/03 12:53:30;;;;;;;2.25;0.95;;;8.10;87.70;;;;;;5087715;28;20520;-63
2023/02/03 12:56:03;;;;;;;1.60;0.65;;;8.10;87.70;;;;;;5088703;28;20063;-62
2023/02/03 12:58:34;;;;;;;4.32;0.70;;;8.10;87.80;;;;;;5086242;28;20055;-62
2023/02/03 13:01:13;;;;;;;3.75;0.70;;;8.10;88.00;;;;;;5086270;28;20132;-61
2023/02/03 13:03:46;;;;;;;1.23;0.50;;;8.10;88.10;;;;;;5088202;28;20052;-61
2023/02/03 13:06:22;;;;;;;2.90;0.70;;;8.10;88.10;;;;;;5087367;28;20040;-65
2023/02/03 13:08:56;;;;;;;3.40;0.50;;;8.10;88.20;;;;;;5087932;28;20054;-65
2023/02/03 13:11:33;;;;;;;4.20;0.77;;;8.10;88.30;;;;;;5085130;28;20054;-65
2023/02/03 13:14:10;;;;;;;1.80;0.77;;;8.10;88.60;;;;;;5088125;28;20047;-65
2023/02/03 13:16:43;;;;;;;3.60;0.70;;;8.10;88.70;;;;;;5087592;28;20055;-59